createdAt,value
2018-03-14T03:28:58.087Z,1001.03
2018-03-14T03:29:58.114Z,1001.02
2018-03-14T03:30:57.944Z,1001.00
2018-03-14T03:32:00.221Z,1001.06
2018-03-14T03:32:57.876Z,1001.04
2018-03-14T03:33:57.876Z,1001.04
2018-03-14T03:34:57.870Z,1001.08
2018-03-14T03:35:57.874Z,1001.07
2018-03-14T03:36:57.872Z,1001.09
2018-03-14T03:37:57.852Z,1001.06
2018-03-14T03:38:57.860Z,1001.11
2018-03-14T03:39:57.875Z,1001.08
2018-03-14T03:40:57.819Z,1001.10
2018-03-14T03:41:57.858Z,1001.11
2018-03-14T03:42:57.829Z,1001.10
2018-03-14T03:43:57.797Z,1001.14
2018-03-14T03:44:57.808Z,1001.10
2018-03-14T03:45:57.793Z,1001.10
2018-03-14T03:46:57.786Z,1001.12
2018-03-14T03:47:57.773Z,1001.09
2018-03-14T03:48:57.780Z,1001.10
2018-03-14T03:49:57.765Z,1001.07
2018-03-14T03:50:57.749Z,1001.09
2018-03-14T03:51:57.764Z,1001.12
2018-03-14T03:52:57.752Z,1001.13
2018-03-14T03:53:57.737Z,1001.09
2018-03-14T03:54:57.724Z,1001.09
2018-03-14T03:55:57.741Z,1001.08
2018-03-14T03:56:57.708Z,1001.10
2018-03-14T03:57:57.731Z,1001.09
2018-03-14T03:58:57.769Z,1001.12
2018-03-14T03:59:57.688Z,1001.12
2018-03-14T04:00:57.698Z,1001.09
2018-03-14T04:01:57.708Z,1001.08
2018-03-14T04:02:57.684Z,1001.08
2018-03-14T04:03:57.675Z,1001.09
2018-03-14T04:04:57.663Z,1001.09
2018-03-14T04:05:57.649Z,1001.04
2018-03-14T04:06:57.657Z,1001.07
2018-03-14T04:07:57.644Z,1001.02
2018-03-14T04:08:57.657Z,1001.03
2018-03-14T04:09:57.650Z,1001.04
2018-03-14T04:10:57.643Z,1001.08
2018-03-14T04:11:57.657Z,1001.05
2018-03-14T04:12:57.627Z,1001.06
2018-03-14T04:13:57.644Z,1001.11
2018-03-14T04:14:57.601Z,1001.09
2018-03-14T04:15:57.590Z,1001.14
2018-03-14T04:16:57.620Z,1001.12
2018-03-14T04:17:57.596Z,1001.12
2018-03-14T04:18:57.633Z,1001.11
2018-03-14T04:19:57.575Z,1001.13
2018-03-14T04:20:57.637Z,1001.11
2018-03-14T04:21:57.561Z,1001.11
2018-03-14T04:22:57.563Z,1001.13
2018-03-14T04:23:57.619Z,1001.11
2018-03-14T04:24:57.571Z,1001.10
2018-03-14T04:25:57.556Z,1001.12
2018-03-14T04:26:57.595Z,1001.10
2018-03-14T04:27:57.532Z,1001.09
2018-03-14T04:28:57.582Z,1001.10
2018-03-14T04:29:57.524Z,1001.08
2018-03-14T04:30:57.542Z,1001.07
2018-03-14T04:31:57.512Z,1001.08
2018-03-14T04:32:57.512Z,1001.08
2018-03-14T04:33:57.524Z,1001.10
2018-03-14T04:34:57.493Z,1001.06
2018-03-14T04:35:57.484Z,1001.10
2018-03-14T04:38:51.052Z,1001.10
2018-03-14T04:39:50.946Z,1001.11
2018-03-14T04:40:50.942Z,1001.08
2018-03-14T04:41:50.881Z,1001.06
2018-03-14T04:42:52.734Z,1001.04
2018-03-14T04:43:50.850Z,1001.05
2018-03-14T04:44:50.840Z,1001.06
2018-03-14T04:45:50.828Z,1000.99
2018-03-14T04:46:50.837Z,1001.02
2018-03-14T04:47:50.841Z,1001.00
2018-03-14T04:48:50.826Z,1001.03
2018-03-14T04:49:50.819Z,1001.02
2018-03-14T04:50:50.827Z,1001.02
2018-03-14T04:51:50.830Z,1001.01
2018-03-14T04:52:50.789Z,1001.00
2018-03-14T04:53:50.800Z,1000.99
2018-03-14T04:54:50.793Z,1001.02
2018-03-14T04:55:50.796Z,1000.97
2018-03-14T04:56:50.777Z,1000.95
2018-03-14T04:57:50.762Z,1000.99
2018-03-14T04:58:50.764Z,1000.98
2018-03-14T04:59:50.781Z,1000.95
2018-03-14T05:00:50.750Z,1000.96
2018-03-14T05:01:50.743Z,1000.99
2018-03-14T05:02:50.743Z,1000.94
2018-03-14T05:03:50.741Z,1000.95
2018-03-14T05:04:50.747Z,1000.94
2018-03-14T05:05:50.730Z,1000.92
2018-03-14T05:08:45.991Z,1000.94
2018-03-14T05:09:54.637Z,1000.93
2018-03-14T05:11:48.265Z,1000.92
2018-03-14T05:12:47.503Z,1000.94
2018-03-14T05:14:31.591Z,1000.96
2018-03-14T05:16:52.868Z,1000.97
2018-03-14T05:19:45.628Z,1000.96
2018-03-14T05:20:45.588Z,1000.95
2018-03-14T05:21:45.566Z,1001.00
2018-03-14T05:22:48.387Z,1001.00
2018-03-14T05:23:45.497Z,1000.98
2018-03-14T05:24:45.488Z,1000.95
2018-03-14T05:25:45.478Z,1000.94
2018-03-14T05:26:45.502Z,1000.96
2018-03-14T05:27:45.520Z,1000.92
2018-03-14T05:28:45.468Z,1000.94
2018-03-14T05:29:45.461Z,1000.92
2018-03-14T05:30:45.453Z,1000.93
2018-03-14T05:31:45.448Z,1000.95
2018-03-14T05:32:45.433Z,1000.98
2018-03-14T05:33:45.442Z,1000.97
2018-03-14T05:34:45.435Z,1001.00
2018-03-14T05:35:45.421Z,1000.98
2018-03-14T05:36:54.299Z,1000.99
2018-03-14T05:38:39.028Z,1001.04
2018-03-14T05:39:38.839Z,1000.98
2018-03-14T05:40:38.837Z,1000.98
2018-03-14T05:41:39.047Z,1001.00
2018-03-14T05:42:38.779Z,1000.96
2018-03-14T05:43:38.778Z,1000.98
2018-03-14T05:44:38.792Z,1001.01
2018-03-14T05:45:38.767Z,1001.04
2018-03-14T05:46:38.798Z,1001.04
2018-03-14T05:47:38.761Z,1001.04
2018-03-14T05:48:38.783Z,1001.08
2018-03-14T05:49:38.748Z,1001.07
2018-03-14T05:50:38.777Z,1001.05
2018-03-14T05:51:38.775Z,1001.08
2018-03-14T05:52:38.743Z,1001.10
2018-03-14T05:53:38.724Z,1001.08
2018-03-14T05:54:38.728Z,1001.10
2018-03-14T05:55:38.734Z,1001.13
2018-03-14T05:56:38.741Z,1001.08
2018-03-14T05:57:38.698Z,1001.09
2018-03-14T05:58:38.691Z,1001.09
2018-03-14T05:59:38.780Z,1001.11
2018-03-14T06:00:38.688Z,1001.07
2018-03-14T06:01:38.678Z,1001.08
2018-03-14T06:02:38.720Z,1001.10
2018-03-14T06:03:38.691Z,1001.07
2018-03-14T06:04:38.665Z,1001.09
2018-03-14T06:05:38.678Z,1001.09
2018-03-14T06:06:38.728Z,1001.08
2018-03-14T06:07:38.657Z,1001.08
2018-03-14T06:08:38.675Z,1001.10
2018-03-14T06:09:38.636Z,1001.09
2018-03-14T06:10:38.659Z,1001.06
2018-03-14T06:11:38.617Z,1001.05
2018-03-14T06:12:38.708Z,1001.06
2018-03-14T06:13:38.612Z,1000.99
2018-03-14T06:14:38.745Z,1000.98
2018-03-14T06:15:38.622Z,1000.99
2018-03-14T06:16:38.643Z,1000.97
2018-03-14T06:17:38.603Z,1000.96
2018-03-14T06:18:38.699Z,1001.00
2018-03-14T06:19:38.654Z,1000.99
2018-03-14T06:20:38.615Z,1001.01
2018-03-14T06:21:38.620Z,1001.02
2018-03-14T06:22:38.630Z,1000.99
2018-03-14T06:23:38.731Z,1001.01
2018-03-14T06:24:38.549Z,1001.01
2018-03-14T06:25:38.601Z,1001.01
2018-03-14T06:26:38.612Z,1000.99
2018-03-14T06:27:38.553Z,1001.08
2018-03-14T06:28:38.521Z,1000.98
2018-03-14T06:29:38.627Z,1001.01
2018-03-14T06:30:38.588Z,1001.02
2018-03-14T06:31:38.558Z,1001.00
2018-03-14T06:32:48.364Z,1001.01
2018-03-14T06:34:33.287Z,1001.00
2018-03-14T06:35:33.441Z,1001.07
2018-03-14T06:36:33.236Z,1001.04
2018-03-14T06:37:33.076Z,1001.04
2018-03-14T06:38:33.083Z,1001.07
2018-03-14T06:39:33.068Z,1001.13
2018-03-14T06:40:33.092Z,1001.11
2018-03-14T06:41:33.094Z,1001.15
2018-03-14T06:42:33.057Z,1001.17
2018-03-14T06:43:33.106Z,1001.13
2018-03-14T06:44:33.062Z,1001.15
2018-03-14T06:45:33.103Z,1001.19
2018-03-14T06:46:33.033Z,1001.15
2018-03-14T06:47:33.057Z,1001.18
2018-03-14T06:48:33.061Z,1001.17
2018-03-14T06:49:33.053Z,1001.15
2018-03-14T06:50:33.020Z,1001.16
2018-03-14T06:51:33.008Z,1001.13
2018-03-14T06:52:33.036Z,1001.12
2018-03-14T06:53:33.002Z,1001.14
2018-03-14T06:54:32.988Z,1001.12
2018-03-14T06:55:32.991Z,1001.15
2018-03-14T06:56:32.982Z,1001.14
2018-03-14T06:57:32.988Z,1001.20
2018-03-14T06:58:32.972Z,1001.18
2018-03-14T06:59:32.960Z,1001.17
2018-03-14T07:00:32.988Z,1001.17
2018-03-14T07:01:32.969Z,1001.17
2018-03-14T07:02:32.961Z,1001.15
2018-03-14T07:03:32.959Z,1001.16
2018-03-14T07:04:32.942Z,1001.19
2018-03-14T07:05:32.938Z,1001.23
2018-03-14T07:06:32.931Z,1001.19
2018-03-14T07:07:32.917Z,1001.23
2018-03-14T07:08:32.940Z,1001.24
2018-03-14T07:09:32.906Z,1001.29
2018-03-14T07:10:32.930Z,1001.31
2018-03-14T07:11:32.916Z,1001.31
2018-03-14T07:12:32.978Z,1001.32
2018-03-14T07:13:32.888Z,1001.33
2018-03-14T07:14:32.898Z,1001.33
2018-03-14T07:15:32.892Z,1001.31
2018-03-14T07:18:27.279Z,1001.32
2018-03-14T07:19:26.345Z,1001.31
2018-03-14T07:22:20.775Z,1001.38
2018-03-14T07:25:13.713Z,1001.37
2018-03-14T07:26:13.111Z,1001.35
2018-03-14T07:27:13.261Z,1001.37
2018-03-14T07:28:13.223Z,1001.37
2018-03-14T07:29:13.497Z,1001.37
